Time;durP1;ratioP1;P1;durP2;ratioP2;P2;SDS_P1;SDS_P2;PMS_P1;PMS_P2;Temp;Humidity;BMP_temperature;BMP_pressure;BME280_temperature;BME280_humidity;BME280_pressure;Samples;Min_cycle;Max_cycle;Signal;HPM_P1;HPM_P2
2023/06/06 00:02:11;;;;;;;6.87;3.50;;;;;;;;;;4957989;29;20456;-74
2023/06/06 00:04:38;;;;;;;4.20;2.90;;;;;;;;;;4957495;29;20922;-75
2023/06/06 00:07:08;;;;;;;5.33;3.80;;;;;;;;;;4957602;29;20776;-74
2023/06/06 00:09:35;;;;;;;5.03;3.30;;;;;;;;;;4957442;29;20435;-75
2023/06/06 00:12:04;;;;;;;7.37;4.27;;;;;;;;;;4957484;29;20423;-74
2023/06/06 00:14:31;;;;;;;6.57;3.60;;;;;;;;;;4956850;29;20421;-75
2023/06/06 00:16:58;;;;;;;4.13;3.17;;;;;;;;;;4957233;29;20925;-75
2023/06/06 00:19:24;;;;;;;4.80;3.50;;;;;;;;;;4959214;28;20512;-74
2023/06/06 00:21:50;;;;;;;6.63;3.67;;;;;;;;;;4943307;29;20421;-74
2023/06/06 00:24:17;;;;;;;6.10;4.30;;;;;;;;;;4960608;29;20390;-74
2023/06/06 00:26:43;;;;;;;4.67;4.07;;;;;;;;;;4960528;29;20470;-74
2023/06/06 00:29:09;;;;;;;5.20;4.10;;;;;;;;;;4960670;29;20386;-74
2023/06/06 00:31:35;;;;;;;5.47;4.73;;;;;;;;;;4960527;29;20447;-75
2023/06/06 00:34:01;;;;;;;6.87;3.80;;;;;;;;;;4961076;29;20376;-74
2023/06/06 00:36:27;;;;;;;7.30;4.10;;;;;;;;;;4961249;29;20412;-74
2023/06/06 00:38:53;;;;;;;7.20;4.10;;;;;;;;;;4960965;29;20811;-74
2023/06/06 00:41:20;;;;;;;6.10;3.40;;;;;;;;;;4961410;29;20399;-74
2023/06/06 00:43:46;;;;;;;8.93;4.33;;;;;;;;;;4960604;29;20427;-75
2023/06/06 00:46:13;;;;;;;8.10;3.87;;;;;;;;;;4960732;29;20891;-74
2023/06/06 00:48:39;;;;;;;7.60;4.87;;;;;;;;;;4960875;29;20901;-75
2023/06/06 00:51:08;;;;;;;5.50;4.40;;;;;;;;;;4961052;29;20828;-74
2023/06/06 00:53:34;;;;;;;5.53;4.50;;;;;;;;;;4960131;29;20412;-74
2023/06/06 00:56:00;;;;;;;6.97;4.20;;;;;;;;;;4961093;29;20471;-74
2023/06/06 00:58:27;;;;;;;5.27;4.40;;;;;;;;;;4960068;28;20567;-74
2023/06/06 01:00:54;;;;;;;4.70;4.27;;;;;;;;;;4960372;29;20405;-74
2023/06/06 01:03:21;;;;;;;5.73;4.90;;;;;;;;;;4960291;29;20444;-74
2023/06/06 01:05:47;;;;;;;4.60;4.00;;;;;;;;;;4960055;29;20401;-74
2023/06/06 01:08:13;;;;;;;8.40;4.27;;;;;;;;;;4960680;29;20392;-74
2023/06/06 01:10:40;;;;;;;6.30;4.53;;;;;;;;;;4960528;29;20873;-74
2023/06/06 01:13:11;;;;;;;8.63;4.77;;;;;;;;;;4960670;29;20383;-74
2023/06/06 01:15:45;;;;;;;4.93;4.17;;;;;;;;;;4960259;29;20460;-75
2023/06/06 01:18:12;;;;;;;10.47;4.60;;;;;;;;;;4959632;29;20445;-74
2023/06/06 01:20:39;;;;;;;5.53;4.50;;;;;;;;;;4960501;29;20885;-74
2023/06/06 01:23:05;;;;;;;8.90;5.40;;;;;;;;;;4960416;29;20417;-74
2023/06/06 01:25:35;;;;;;;6.07;4.70;;;;;;;;;;4959798;29;20384;-76
2023/06/06 01:28:04;;;;;;;5.80;4.90;;;;;;;;;;4943799;29;20380;-74
2023/06/06 01:30:30;;;;;;;5.23;4.73;;;;;;;;;;4960881;28;20402;-74
2023/06/06 01:33:10;;;;;;;5.70;4.93;;;;;;;;;;4959996;29;20478;-74
2023/06/06 01:36:00;;;;;;;12.20;5.43;;;;;;;;;;4960286;29;20412;-74
2023/06/06 01:38:29;;;;;;;6.50;4.77;;;;;;;;;;4960530;29;20468;-74
2023/06/06 01:40:57;;;;;;;9.10;5.60;;;;;;;;;;4959865;29;20426;-74
2023/06/06 01:43:24;;;;;;;7.53;5.63;;;;;;;;;;4960357;29;20459;-74
2023/06/06 01:45:51;;;;;;;9.13;5.23;;;;;;;;;;4959550;29;20427;-74
2023/06/06 01:48:18;;;;;;;12.30;5.77;;;;;;;;;;4960816;29;20384;-74
2023/06/06 01:50:45;;;;;;;5.17;4.67;;;;;;;;;;4959496;29;20488;-74
2023/06/06 01:53:11;;;;;;;7.47;5.90;;;;;;;;;;4960080;29;20387;-74
2023/06/06 01:55:38;;;;;;;9.43;5.77;;;;;;;;;;4959307;29;20400;-74
2023/06/06 01:58:05;;;;;;;10.63;6.30;;;;;;;;;;4959876;29;20871;-74
2023/06/06 02:00:31;;;;;;;8.77;5.20;;;;;;;;;;4959492;29;20470;-74
2023/06/06 02:02:57;;;;;;;10.07;5.60;;;;;;;;;;4942053;29;20467;-74
2023/06/06 02:05:23;;;;;;;7.03;5.23;;;;;;;;;;4959656;29;20480;-74
2023/06/06 02:07:49;;;;;;;7.40;5.50;;;;;;;;;;4959710;29;20523;-74
2023/06/06 02:10:16;;;;;;;6.43;5.13;;;;;;;;;;4959960;29;20476;-75
2023/06/06 02:12:42;;;;;;;10.27;6.07;;;;;;;;;;4959476;29;20428;-74
2023/06/06 02:15:09;;;;;;;5.90;5.00;;;;;;;;;;4959982;29;20383;-74
2023/06/06 02:17:35;;;;;;;11.93;6.00;;;;;;;;;;4959364;29;20483;-75
2023/06/06 02:20:01;;;;;;;7.20;6.00;;;;;;;;;;4959639;29;20442;-74
2023/06/06 02:22:27;;;;;;;7.53;6.37;;;;;;;;;;4959338;29;20395;-74
2023/06/06 02:24:54;;;;;;;6.90;5.20;;;;;;;;;;4959851;29;20391;-74
2023/06/06 02:27:21;;;;;;;7.20;5.70;;;;;;;;;;4959402;29;20431;-74
2023/06/06 02:29:47;;;;;;;9.17;5.80;;;;;;;;;;4959052;29;20435;-75
2023/06/06 02:32:13;;;;;;;10.87;6.70;;;;;;;;;;4959329;29;20416;-74
2023/06/06 02:34:39;;;;;;;10.40;7.50;;;;;;;;;;4959437;29;20383;-74
2023/06/06 02:37:06;;;;;;;7.80;6.53;;;;;;;;;;4959594;29;20409;-74
2023/06/06 02:39:36;;;;;;;12.97;7.07;;;;;;;;;;4959256;29;20559;-74
2023/06/06 02:42:05;;;;;;;8.30;6.50;;;;;;;;;;4958540;28;20387;-74
2023/06/06 02:44:31;;;;;;;11.50;7.33;;;;;;;;;;4959248;29;20404;-74
2023/06/06 02:46:57;;;;;;;9.03;7.23;;;;;;;;;;4958827;29;20405;-74
2023/06/06 02:49:23;;;;;;;12.13;8.10;;;;;;;;;;4958743;29;20383;-74
2023/06/06 02:51:49;;;;;;;9.33;7.53;;;;;;;;;;4958810;29;20372;-74
2023/06/06 02:54:15;;;;;;;9.73;7.07;;;;;;;;;;4959120;29;20749;-74
2023/06/06 02:56:41;;;;;;;12.20;7.70;;;;;;;;;;4958637;29;20482;-74
2023/06/06 02:59:07;;;;;;;16.33;8.37;;;;;;;;;;4959448;29;20468;-74
2023/06/06 03:01:34;;;;;;;15.13;9.63;;;;;;;;;;4959331;29;20868;-74
2023/06/06 03:04:00;;;;;;;9.40;7.93;;;;;;;;;;4958871;29;20387;-74
2023/06/06 03:06:28;;;;;;;12.13;7.87;;;;;;;;;;4959145;29;20872;-74
2023/06/06 03:08:57;;;;;;;12.80;9.07;;;;;;;;;;4958797;29;20432;-74
2023/06/06 03:11:23;;;;;;;9.47;8.50;;;;;;;;;;4959194;29;20443;-74
2023/06/06 03:13:49;;;;;;;11.93;10.17;;;;;;;;;;4958853;29;20402;-74
2023/06/06 03:16:16;;;;;;;12.40;9.33;;;;;;;;;;4958604;29;20405;-75
2023/06/06 03:18:46;;;;;;;12.30;9.10;;;;;;;;;;4959091;29;20497;-75
2023/06/06 03:21:13;;;;;;;17.20;9.90;;;;;;;;;;4959760;29;20875;-74
2023/06/06 03:23:39;;;;;;;16.80;8.80;;;;;;;;;;4959276;29;20408;-74
2023/06/06 03:26:05;;;;;;;13.70;8.60;;;;;;;;;;4960128;29;20422;-73
2023/06/06 03:28:31;;;;;;;14.20;8.63;;;;;;;;;;4959282;29;20432;-73
2023/06/06 03:30:58;;;;;;;15.77;8.93;;;;;;;;;;4958093;29;20399;-74
2023/06/06 03:33:24;;;;;;;9.70;8.50;;;;;;;;;;4958891;29;20466;-73
2023/06/06 03:35:50;;;;;;;13.13;8.73;;;;;;;;;;4959009;29;20424;-74
2023/06/06 03:38:16;;;;;;;12.10;9.33;;;;;;;;;;4958969;29;20460;-73
2023/06/06 03:40:42;;;;;;;14.37;10.63;;;;;;;;;;4959343;29;20515;-74
2023/06/06 03:43:08;;;;;;;13.60;9.80;;;;;;;;;;4958593;29;20418;-73
2023/06/06 03:45:34;;;;;;;17.57;10.27;;;;;;;;;;4959111;29;20415;-73
2023/06/06 03:48:00;;;;;;;12.23;9.53;;;;;;;;;;4958102;29;20407;-73
2023/06/06 03:50:26;;;;;;;12.57;9.37;;;;;;;;;;4958628;29;20510;-73
2023/06/06 03:52:53;;;;;;;13.57;8.30;;;;;;;;;;4958637;28;20383;-73
2023/06/06 03:55:19;;;;;;;11.80;8.80;;;;;;;;;;4962105;29;20434;-73
2023/06/06 03:57:45;;;;;;;14.00;10.67;;;;;;;;;;4963141;29;20387;-73
2023/06/06 04:00:15;;;;;;;13.33;10.43;;;;;;;;;;4962897;29;20469;-73
2023/06/06 04:02:41;;;;;;;13.67;9.60;;;;;;;;;;4962488;29;20387;-75
2023/06/06 04:05:08;;;;;;;14.97;9.10;;;;;;;;;;4962346;29;20454;-73
2023/06/06 04:07:34;;;;;;;14.60;9.97;;;;;;;;;;4962644;29;20479;-74
2023/06/06 04:10:00;;;;;;;14.10;10.47;;;;;;;;;;4961905;29;20416;-73
2023/06/06 04:12:26;;;;;;;15.10;9.20;;;;;;;;;;4962338;29;20375;-73
2023/06/06 04:14:52;;;;;;;14.60;9.87;;;;;;;;;;4962102;29;20419;-73
2023/06/06 04:17:19;;;;;;;15.07;10.50;;;;;;;;;;4962464;29;20855;-73
2023/06/06 04:19:47;;;;;;;18.87;10.40;;;;;;;;;;4962094;29;20435;-74
2023/06/06 04:22:13;;;;;;;16.30;10.33;;;;;;;;;;4962026;29;20410;-73
2023/06/06 04:24:40;;;;;;;15.17;11.70;;;;;;;;;;4962672;29;20450;-73
2023/06/06 04:27:07;;;;;;;13.40;9.70;;;;;;;;;;4962190;29;20420;-73
2023/06/06 04:29:36;;;;;;;19.07;10.50;;;;;;;;;;4962263;29;20412;-73
2023/06/06 04:32:03;;;;;;;11.17;9.30;;;;;;;;;;4961750;29;20800;-73
2023/06/06 04:34:30;;;;;;;15.57;10.43;;;;;;;;;;4961676;29;20379;-73
2023/06/06 04:37:05;;;;;;;18.77;10.70;;;;;;;;;;4961753;29;20459;-73
2023/06/06 04:39:32;;;;;;;15.40;10.90;;;;;;;;;;4960221;29;20471;-73
2023/06/06 04:41:58;;;;;;;15.57;11.77;;;;;;;;;;4961383;29;20468;-74
2023/06/06 04:44:25;;;;;;;12.77;10.47;;;;;;;;;;4961955;29;20412;-73
2023/06/06 04:46:52;;;;;;;12.97;9.50;;;;;;;;;;4961570;29;20969;-73
2023/06/06 04:49:23;;;;;;;16.17;10.90;;;;;;;;;;4961568;29;20412;-73
2023/06/06 04:51:50;;;;;;;15.83;10.60;;;;;;;;;;4961460;29;20392;-74
2023/06/06 04:54:16;;;;;;;15.57;10.73;;;;;;;;;;4961436;29;20391;-74
2023/06/06 04:56:43;;;;;;;15.73;12.57;;;;;;;;;;4961105;29;20407;-74
2023/06/06 04:59:09;;;;;;;20.00;12.10;;;;;;;;;;4961390;29;20583;-73
2023/06/06 05:01:41;;;;;;;15.60;11.57;;;;;;;;;;4961705;29;20446;-74
2023/06/06 05:04:07;;;;;;;14.33;10.13;;;;;;;;;;4961024;28;20419;-74
2023/06/06 05:06:36;;;;;;;12.10;10.80;;;;;;;;;;4961019;29;20836;-73
2023/06/06 05:09:07;;;;;;;17.07;12.97;;;;;;;;;;4961492;29;20413;-73
2023/06/06 05:11:33;;;;;;;17.40;11.30;;;;;;;;;;4961060;29;20414;-73
2023/06/06 05:13:59;;;;;;;13.80;10.60;;;;;;;;;;4960393;29;20419;-74
2023/06/06 05:16:26;;;;;;;15.70;11.50;;;;;;;;;;4961088;29;20440;-73
2023/06/06 05:18:52;;;;;;;17.23;11.00;;;;;;;;;;4961018;29;20557;-73
2023/06/06 05:21:21;;;;;;;17.47;10.40;;;;;;;;;;4960860;29;20424;-73
2023/06/06 05:23:47;;;;;;;16.10;11.53;;;;;;;;;;4960875;29;20416;-74
2023/06/06 05:26:13;;;;;;;20.33;12.80;;;;;;;;;;4961120;29;20387;-74
2023/06/06 05:28:39;;;;;;;15.17;12.13;;;;;;;;;;4961072;29;20415;-73
2023/06/06 05:31:07;;;;;;;18.33;11.03;;;;;;;;;;4960584;29;20455;-73
2023/06/06 05:33:33;;;;;;;20.50;12.23;;;;;;;;;;4961129;29;20412;-73
2023/06/06 05:36:00;;;;;;;20.27;12.03;;;;;;;;;;4960837;29;20488;-73
2023/06/06 05:38:26;;;;;;;18.50;12.50;;;;;;;;;;4961294;29;20435;-73
2023/06/06 05:40:52;;;;;;;17.93;11.60;;;;;;;;;;4961273;29;20424;-74
2023/06/06 05:43:18;;;;;;;16.30;11.53;;;;;;;;;;4960912;29;20416;-73
2023/06/06 05:45:44;;;;;;;14.83;11.30;;;;;;;;;;4960934;29;20501;-73
2023/06/06 05:48:10;;;;;;;18.37;13.00;;;;;;;;;;4960789;29;20797;-74
2023/06/06 05:50:36;;;;;;;14.70;12.60;;;;;;;;;;4960507;29;20542;-73
2023/06/06 05:53:02;;;;;;;18.83;12.10;;;;;;;;;;4960582;29;20417;-73
2023/06/06 05:55:33;;;;;;;20.60;12.43;;;;;;;;;;4960260;29;20794;-73
2023/06/06 05:57:59;;;;;;;12.13;10.30;;;;;;;;;;4960062;29;20470;-74
2023/06/06 06:00:26;;;;;;;15.00;11.67;;;;;;;;;;4960856;29;20372;-74
2023/06/06 06:02:55;;;;;;;17.07;11.53;;;;;;;;;;4943660;29;20761;-74
2023/06/06 06:05:21;;;;;;;18.10;12.87;;;;;;;;;;4960499;29;20492;-74
2023/06/06 06:07:47;;;;;;;15.43;11.80;;;;;;;;;;4960224;29;20401;-75
2023/06/06 06:10:16;;;;;;;12.13;10.00;;;;;;;;;;4960440;29;20426;-73
2023/06/06 06:12:43;;;;;;;15.83;11.20;;;;;;;;;;4960253;29;20375;-73
2023/06/06 06:15:09;;;;;;;15.87;11.13;;;;;;;;;;4959773;29;20387;-74
2023/06/06 06:17:35;;;;;;;21.70;12.27;;;;;;;;;;4959124;28;20391;-73
2023/06/06 06:20:08;;;;;;;15.83;11.80;;;;;;;;;;4959595;29;20434;-74
2023/06/06 06:22:37;;;;;;;18.10;11.97;;;;;;;;;;4958840;29;20383;-73
2023/06/06 06:25:04;;;;;;;14.67;11.13;;;;;;;;;;4941788;29;20425;-74
2023/06/06 06:27:33;;;;;;;15.60;12.07;;;;;;;;;;4959038;29;20472;-74
2023/06/06 06:30:01;;;;;;;17.50;12.43;;;;;;;;;;4958964;29;20406;-74
2023/06/06 06:32:27;;;;;;;19.17;12.20;;;;;;;;;;4959235;29;20421;-74
2023/06/06 06:34:53;;;;;;;18.27;12.63;;;;;;;;;;4959236;29;20510;-74
2023/06/06 06:37:19;;;;;;;15.00;11.37;;;;;;;;;;4959145;29;20372;-74
2023/06/06 06:39:48;;;;;;;14.57;11.80;;;;;;;;;;4959345;29;20968;-73
2023/06/06 06:42:14;;;;;;;15.27;12.50;;;;;;;;;;4958855;29;20428;-73
2023/06/06 06:44:40;;;;;;;18.00;11.63;;;;;;;;;;4959348;29;20761;-74
2023/06/06 06:47:06;;;;;;;12.70;10.40;;;;;;;;;;4958693;29;20408;-74
2023/06/06 06:49:32;;;;;;;14.43;10.47;;;;;;;;;;4958977;29;20439;-74
2023/06/06 06:52:00;;;;;;;14.33;10.70;;;;;;;;;;4958953;29;20401;-74
2023/06/06 06:54:26;;;;;;;18.13;11.00;;;;;;;;;;4958973;29;20414;-74
2023/06/06 06:56:53;;;;;;;17.77;11.30;;;;;;;;;;4959246;29;20429;-74
2023/06/06 06:59:20;;;;;;;14.50;10.07;;;;;;;;;;4958908;29;20969;-74
2023/06/06 07:01:49;;;;;;;21.00;10.70;;;;;;;;;;4958743;29;20409;-74
2023/06/06 07:04:16;;;;;;;20.50;11.03;;;;;;;;;;4958756;29;20459;-74
2023/06/06 07:06:42;;;;;;;14.97;10.40;;;;;;;;;;4958837;29;20507;-73
2023/06/06 07:09:08;;;;;;;14.80;11.30;;;;;;;;;;4959082;29;20416;-73
2023/06/06 07:11:34;;;;;;;13.67;10.50;;;;;;;;;;4958618;29;20424;-73
2023/06/06 07:14:00;;;;;;;16.93;11.60;;;;;;;;;;4958678;29;20407;-73
2023/06/06 07:16:27;;;;;;;14.63;10.40;;;;;;;;;;4958719;29;20413;-73
2023/06/06 07:18:53;;;;;;;13.20;10.03;;;;;;;;;;4958317;29;20969;-73
2023/06/06 07:21:21;;;;;;;14.30;11.03;;;;;;;;;;4959008;29;20417;-73
2023/06/06 07:23:48;;;;;;;14.03;10.37;;;;;;;;;;4958924;29;20451;-73
2023/06/06 07:26:16;;;;;;;13.50;9.93;;;;;;;;;;4958871;29;20412;-73
2023/06/06 07:28:42;;;;;;;16.40;11.10;;;;;;;;;;4958740;29;20403;-73
2023/06/06 07:31:08;;;;;;;13.23;10.20;;;;;;;;;;4958931;29;20454;-73
2023/06/06 07:33:35;;;;;;;15.40;10.27;;;;;;;;;;4941822;29;20479;-73
2023/06/06 07:36:01;;;;;;;17.67;9.37;;;;;;;;;;4958391;29;20386;-73
2023/06/06 07:38:27;;;;;;;18.20;11.43;;;;;;;;;;4958664;29;20471;-73
2023/06/06 07:40:53;;;;;;;13.50;9.43;;;;;;;;;;4958724;29;20391;-73
2023/06/06 07:43:19;;;;;;;9.63;8.43;;;;;;;;;;4958885;29;20409;-73
2023/06/06 07:45:45;;;;;;;15.77;10.33;;;;;;;;;;4958961;29;20447;-73
2023/06/06 07:48:12;;;;;;;17.30;10.50;;;;;;;;;;4958406;29;20419;-73
2023/06/06 07:50:38;;;;;;;21.30;11.67;;;;;;;;;;4958545;29;20518;-73
2023/06/06 07:53:05;;;;;;;13.03;10.20;;;;;;;;;;4958344;29;20865;-73
2023/06/06 07:55:31;;;;;;;16.97;11.23;;;;;;;;;;4958137;29;20405;-73
2023/06/06 07:57:58;;;;;;;22.30;10.57;;;;;;;;;;4958021;29;20416;-73
2023/06/06 08:00:24;;;;;;;14.63;9.67;;;;;;;;;;4958208;29;20490;-73
2023/06/06 08:02:50;;;;;;;15.50;11.17;;;;;;;;;;4958680;29;20459;-73
2023/06/06 08:05:19;;;;;;;18.13;10.40;;;;;;;;;;4958500;29;20820;-73
2023/06/06 08:07:45;;;;;;;14.27;9.77;;;;;;;;;;4958480;29;20750;-73
2023/06/06 08:10:11;;;;;;;13.83;10.10;;;;;;;;;;4958180;29;20475;-73
2023/06/06 08:12:38;;;;;;;12.53;10.10;;;;;;;;;;4958364;29;20408;-73
2023/06/06 08:15:04;;;;;;;14.10;10.00;;;;;;;;;;4958380;29;20467;-73
2023/06/06 08:17:30;;;;;;;13.53;10.17;;;;;;;;;;4958073;29;20404;-73
2023/06/06 08:19:56;;;;;;;11.70;8.77;;;;;;;;;;4958291;29;20472;-74
2023/06/06 08:22:24;;;;;;;15.70;9.77;;;;;;;;;;4957842;29;20920;-73
2023/06/06 08:24:50;;;;;;;13.80;10.10;;;;;;;;;;4957922;29;20436;-73
2023/06/06 08:27:17;;;;;;;13.83;10.13;;;;;;;;;;4957589;29;20412;-73
2023/06/06 08:29:43;;;;;;;19.47;9.80;;;;;;;;;;4957770;29;20412;-73
2023/06/06 08:32:12;;;;;;;13.47;9.73;;;;;;;;;;4957903;29;20417;-73
2023/06/06 08:34:38;;;;;;;15.60;10.10;;;;;;;;;;4957952;29;20409;-73
2023/06/06 08:37:04;;;;;;;13.57;8.40;;;;;;;;;;4957577;29;20439;-74
2023/06/06 08:39:30;;;;;;;14.30;8.63;;;;;;;;;;4957971;28;20563;-74
2023/06/06 08:41:56;;;;;;;10.10;7.97;;;;;;;;;;4961117;29;20436;-73
2023/06/06 08:44:23;;;;;;;15.43;8.53;;;;;;;;;;4960998;29;20408;-73
2023/06/06 08:46:53;;;;;;;10.90;8.50;;;;;;;;;;4961098;29;20503;-74
2023/06/06 08:49:20;;;;;;;17.97;8.90;;;;;;;;;;4960629;29;20921;-73
2023/06/06 08:51:50;;;;;;;21.00;8.80;;;;;;;;;;4961212;29;20405;-74
2023/06/06 08:54:19;;;;;;;11.80;7.93;;;;;;;;;;4960219;29;20405;-74
2023/06/06 08:56:46;;;;;;;11.83;8.77;;;;;;;;;;4960266;29;20416;-73
2023/06/06 08:59:12;;;;;;;12.97;9.10;;;;;;;;;;4960387;29;20468;-74
2023/06/06 09:01:38;;;;;;;15.50;7.87;;;;;;;;;;4960737;29;20405;-73
2023/06/06 09:04:06;;;;;;;14.73;9.10;;;;;;;;;;4960256;29;20421;-74
2023/06/06 09:06:34;;;;;;;13.67;8.50;;;;;;;;;;4960619;29;20405;-74
2023/06/06 09:09:00;;;;;;;9.20;8.03;;;;;;;;;;4960243;29;20423;-74
2023/06/06 09:11:26;;;;;;;11.33;7.60;;;;;;;;;;4960250;29;20428;-74
2023/06/06 09:13:52;;;;;;;10.80;8.07;;;;;;;;;;4959873;29;20412;-74
2023/06/06 09:16:18;;;;;;;14.10;7.90;;;;;;;;;;4960056;29;20408;-74
2023/06/06 09:18:48;;;;;;;11.27;7.90;;;;;;;;;;4959871;29;20472;-74
2023/06/06 09:21:14;;;;;;;15.17;8.20;;;;;;;;;;4959364;29;20408;-74
2023/06/06 09:23:41;;;;;;;11.00;7.83;;;;;;;;;;4959292;29;20424;-74
2023/06/06 09:26:20;;;;;;;10.70;6.43;;;;;;;;;;4959441;29;20864;-74
2023/06/06 09:28:47;;;;;;;8.83;7.10;;;;;;;;;;4959474;29;20408;-74
2023/06/06 09:31:23;;;;;;;9.27;7.00;;;;;;;;;;4959161;29;20470;-74
2023/06/06 09:33:50;;;;;;;9.53;7.33;;;;;;;;;;4958624;29;20546;-74
2023/06/06 09:36:16;;;;;;;14.13;8.10;;;;;;;;;;4958282;29;20757;-74
2023/06/06 09:38:42;;;;;;;11.97;8.00;;;;;;;;;;4958336;29;20472;-74
2023/06/06 09:41:08;;;;;;;8.50;7.03;;;;;;;;;;4958560;29;20440;-74
2023/06/06 09:43:37;;;;;;;11.33;7.47;;;;;;;;;;4958409;29;20404;-74
2023/06/06 09:46:05;;;;;;;14.53;7.93;;;;;;;;;;4957516;29;20420;-75
2023/06/06 09:48:31;;;;;;;14.63;8.10;;;;;;;;;;4957601;29;20421;-74
2023/06/06 09:50:58;;;;;;;8.37;6.50;;;;;;;;;;4956813;28;20523;-74
2023/06/06 09:53:24;;;;;;;11.20;6.37;;;;;;;;;;4957133;29;20463;-74
2023/06/06 09:55:51;;;;;;;7.07;6.30;;;;;;;;;;4957666;29;20405;-74
2023/06/06 09:58:20;;;;;;;14.80;6.53;;;;;;;;;;4956858;29;20784;-74
2023/06/06 10:00:47;;;;;;;7.87;6.13;;;;;;;;;;4957184;29;20455;-74
2023/06/06 10:03:18;;;;;;;7.43;6.10;;;;;;;;;;4957001;29;20468;-74
2023/06/06 10:05:48;;;;;;;6.40;5.80;;;;;;;;;;4957176;29;20448;-74
2023/06/06 10:08:15;;;;;;;10.10;6.93;;;;;;;;;;4956883;29;20452;-74
2023/06/06 10:10:43;;;;;;;10.93;7.20;;;;;;;;;;4956720;29;20535;-74
2023/06/06 10:13:12;;;;;;;8.77;6.47;;;;;;;;;;4956596;29;20549;-74
2023/06/06 10:15:38;;;;;;;11.10;6.80;;;;;;;;;;4956866;29;20412;-74
2023/06/06 10:18:05;;;;;;;13.23;6.97;;;;;;;;;;4956751;29;20420;-75
2023/06/06 10:20:31;;;;;;;7.30;5.70;;;;;;;;;;4956896;29;20487;-74
2023/06/06 10:22:59;;;;;;;6.53;5.80;;;;;;;;;;4957210;29;20405;-74
2023/06/06 10:25:26;;;;;;;8.47;6.50;;;;;;;;;;4956532;29;20758;-74
2023/06/06 10:27:55;;;;;;;11.47;6.97;;;;;;;;;;4956857;29;20412;-74
2023/06/06 10:30:29;;;;;;;15.57;7.40;;;;;;;;;;4956370;29;20423;-74
2023/06/06 10:33:07;;;;;;;10.53;7.07;;;;;;;;;;4956534;29;20466;-74
2023/06/06 10:35:34;;;;;;;8.93;6.10;;;;;;;;;;4939901;29;20943;-74
2023/06/06 10:38:03;;;;;;;11.93;7.83;;;;;;;;;;4956484;29;20417;-74
2023/06/06 10:40:40;;;;;;;10.63;6.70;;;;;;;;;;4956100;29;20992;-74
2023/06/06 10:43:06;;;;;;;8.20;6.80;;;;;;;;;;4956215;29;20404;-75
2023/06/06 10:45:42;;;;;;;8.97;6.67;;;;;;;;;;4956099;29;20413;-74
2023/06/06 10:48:08;;;;;;;12.00;7.40;;;;;;;;;;4955992;29;20525;-74
2023/06/06 10:50:35;;;;;;;9.90;6.43;;;;;;;;;;4956240;29;20499;-74
2023/06/06 10:53:07;;;;;;;7.40;5.97;;;;;;;;;;4956274;29;20420;-74
2023/06/06 10:55:33;;;;;;;8.10;6.40;;;;;;;;;;4956169;29;21184;-74
2023/06/06 10:58:07;;;;;;;14.60;7.03;;;;;;;;;;4956089;29;20413;-75
2023/06/06 11:00:34;;;;;;;11.23;6.63;;;;;;;;;;4956131;29;20526;-72
2023/06/06 11:03:07;;;;;;;8.00;6.13;;;;;;;;;;4938138;29;20920;-73
2023/06/06 11:05:33;;;;;;;11.83;7.93;;;;;;;;;;4955729;29;20409;-74
2023/06/06 11:08:02;;;;;;;7.53;6.10;;;;;;;;;;4955954;29;20413;-75
2023/06/06 11:10:30;;;;;;;9.50;6.23;;;;;;;;;;4955218;29;20432;-75
2023/06/06 11:12:56;;;;;;;7.30;4.77;;;;;;;;;;4955581;29;20504;-74
2023/06/06 11:15:32;;;;;;;12.10;6.90;;;;;;;;;;4955472;29;20436;-74
2023/06/06 11:18:01;;;;;;;7.87;7.07;;;;;;;;;;4955691;29;20412;-74
2023/06/06 11:20:28;;;;;;;9.33;6.10;;;;;;;;;;4955215;29;20468;-74
2023/06/06 11:23:01;;;;;;;14.47;6.10;;;;;;;;;;4955550;29;20408;-74
2023/06/06 11:25:28;;;;;;;8.53;5.93;;;;;;;;;;4955390;29;20415;-74
2023/06/06 11:27:55;;;;;;;15.13;6.70;;;;;;;;;;4955498;29;20413;-73
2023/06/06 11:30:23;;;;;;;7.63;5.90;;;;;;;;;;4955098;29;20504;-73
2023/06/06 11:32:49;;;;;;;7.93;5.73;;;;;;;;;;4954913;29;20447;-74
2023/06/06 11:35:17;;;;;;;9.43;6.67;;;;;;;;;;4955185;29;20445;-75
2023/06/06 11:37:43;;;;;;;8.30;5.90;;;;;;;;;;4955730;29;20455;-74
2023/06/06 11:40:09;;;;;;;8.67;6.23;;;;;;;;;;4954999;29;20845;-73
2023/06/06 11:42:35;;;;;;;8.50;5.60;;;;;;;;;;4955509;29;20470;-74
2023/06/06 11:45:02;;;;;;;8.83;5.17;;;;;;;;;;4955462;29;20417;-73
2023/06/06 11:47:34;;;;;;;7.77;5.77;;;;;;;;;;4954902;29;20888;-73
2023/06/06 11:50:01;;;;;;;9.77;6.03;;;;;;;;;;4937645;29;20874;-73
2023/06/06 11:52:27;;;;;;;9.93;6.03;;;;;;;;;;4955066;29;20463;-73
2023/06/06 11:54:57;;;;;;;11.43;4.80;;;;;;;;;;4955214;29;20893;-72
2023/06/06 11:57:23;;;;;;;9.37;5.90;;;;;;;;;;4938432;29;20413;-73
2023/06/06 11:59:54;;;;;;;6.70;5.70;;;;;;;;;;4955200;29;20522;-73
2023/06/06 12:02:20;;;;;;;9.40;6.10;;;;;;;;;;4954938;29;20409;-73
2023/06/06 12:04:49;;;;;;;8.27;5.27;;;;;;;;;;4955125;29;20506;-73
2023/06/06 12:07:15;;;;;;;7.30;5.57;;;;;;;;;;4955006;29;20423;-73
2023/06/06 12:09:41;;;;;;;14.23;5.23;;;;;;;;;;4955313;29;20412;-73
2023/06/06 12:12:08;;;;;;;6.33;4.97;;;;;;;;;;4955371;29;20817;-73
2023/06/06 12:14:34;;;;;;;6.23;4.43;;;;;;;;;;4955260;28;20412;-74
2023/06/06 12:17:04;;;;;;;11.20;5.33;;;;;;;;;;4958436;29;20877;-74
2023/06/06 12:19:30;;;;;;;9.50;4.30;;;;;;;;;;4958216;29;20464;-74
2023/06/06 12:21:56;;;;;;;7.83;5.00;;;;;;;;;;4958446;29;20774;-74
2023/06/06 12:24:26;;;;;;;6.43;4.63;;;;;;;;;;4958274;29;20400;-74
2023/06/06 12:26:59;;;;;;;5.30;4.07;;;;;;;;;;4958387;29;20826;-74
2023/06/06 12:29:30;;;;;;;7.27;4.17;;;;;;;;;;4957960;29;20998;-74
2023/06/06 12:32:15;;;;;;;6.23;4.40;;;;;;;;;;4958267;29;20456;-74
2023/06/06 12:34:43;;;;;;;6.47;3.97;;;;;;;;;;4958201;29;20409;-74
2023/06/06 12:37:10;;;;;;;8.73;4.23;;;;;;;;;;4958121;29;20424;-74
2023/06/06 12:39:39;;;;;;;6.33;3.70;;;;;;;;;;4940778;29;20543;-74
2023/06/06 12:42:12;;;;;;;6.20;3.20;;;;;;;;;;4958145;29;20408;-74
2023/06/06 12:44:38;;;;;;;4.90;3.33;;;;;;;;;;4958399;29;20385;-74
2023/06/06 12:47:04;;;;;;;7.03;3.30;;;;;;;;;;4957978;29;20404;-74
2023/06/06 12:49:30;;;;;;;5.93;3.83;;;;;;;;;;4957642;29;20404;-74
2023/06/06 12:51:56;;;;;;;7.20;3.93;;;;;;;;;;4957876;29;20405;-74
2023/06/06 12:54:22;;;;;;;11.60;3.13;;;;;;;;;;4957535;29;20411;-74
2023/06/06 12:56:49;;;;;;;5.90;3.77;;;;;;;;;;4957887;29;20452;-74
2023/06/06 12:59:15;;;;;;;5.30;3.50;;;;;;;;;;4958141;29;20475;-74
2023/06/06 13:01:41;;;;;;;7.07;3.23;;;;;;;;;;4957651;29;20404;-74
2023/06/06 13:04:07;;;;;;;4.77;3.53;;;;;;;;;;4957642;29;20412;-74
2023/06/06 13:06:34;;;;;;;3.83;2.80;;;;;;;;;;4957861;29;20412;-74
2023/06/06 13:09:00;;;;;;;4.30;3.00;;;;;;;;;;4957473;29;20917;-74
2023/06/06 13:11:26;;;;;;;6.70;3.20;;;;;;;;;;4957008;29;20575;-74
2023/06/06 13:13:52;;;;;;;6.37;3.33;;;;;;;;;;4957653;29;20504;-74
2023/06/06 13:16:18;;;;;;;2.93;2.63;;;;;;;;;;4957209;29;20417;-74
2023/06/06 13:18:44;;;;;;;5.97;3.17;;;;;;;;;;4957273;29;20827;-74
2023/06/06 13:21:10;;;;;;;4.23;3.10;;;;;;;;;;4957257;29;20448;-73
2023/06/06 13:23:36;;;;;;;6.53;3.30;;;;;;;;;;4956944;29;20507;-74
2023/06/06 13:26:02;;;;;;;3.60;3.30;;;;;;;;;;4957212;28;20455;-74
2023/06/06 13:28:28;;;;;;;3.80;3.23;;;;;;;;;;4957027;29;20425;-74
2023/06/06 13:30:54;;;;;;;5.47;3.00;;;;;;;;;;4957368;29;20413;-74
2023/06/06 13:33:21;;;;;;;4.50;2.83;;;;;;;;;;4956784;29;20516;-74
2023/06/06 13:35:48;;;;;;;4.03;3.20;;;;;;;;;;4940129;29;20405;-73
2023/06/06 13:38:17;;;;;;;5.47;3.77;;;;;;;;;;4956946;29;20769;-74
2023/06/06 13:40:43;;;;;;;4.77;3.33;;;;;;;;;;4957114;29;20504;-73
2023/06/06 13:43:10;;;;;;;5.73;3.10;;;;;;;;;;4957254;29;20437;-74
2023/06/06 13:45:37;;;;;;;3.40;2.90;;;;;;;;;;4957007;29;20416;-74
2023/06/06 13:48:03;;;;;;;5.53;3.07;;;;;;;;;;4956996;29;20475;-74
2023/06/06 13:50:30;;;;;;;3.97;3.50;;;;;;;;;;4956583;29;20500;-74
2023/06/06 13:52:56;;;;;;;5.30;3.30;;;;;;;;;;4956413;29;20443;-74
2023/06/06 13:55:22;;;;;;;6.23;3.33;;;;;;;;;;4956806;29;20416;-74
2023/06/06 13:57:52;;;;;;;3.30;2.80;;;;;;;;;;4956838;29;20759;-74
2023/06/06 14:00:19;;;;;;;6.77;3.30;;;;;;;;;;4956601;29;20469;-76
2023/06/06 14:02:45;;;;;;;6.10;2.73;;;;;;;;;;4956335;29;20412;-74
2023/06/06 14:05:11;;;;;;;3.30;3.10;;;;;;;;;;4956435;29;20960;-74
2023/06/06 14:07:38;;;;;;;3.27;2.97;;;;;;;;;;4956232;29;20416;-74
2023/06/06 14:10:05;;;;;;;4.17;2.97;;;;;;;;;;4956468;29;20823;-74
2023/06/06 14:12:31;;;;;;;4.63;2.93;;;;;;;;;;4956193;29;20428;-74
2023/06/06 14:14:57;;;;;;;3.53;3.10;;;;;;;;;;4956256;29;20488;-74
2023/06/06 14:17:23;;;;;;;4.83;3.03;;;;;;;;;;4955977;29;20421;-74
2023/06/06 14:19:54;;;;;;;4.27;3.30;;;;;;;;;;4956388;29;20500;-75
2023/06/06 14:22:21;;;;;;;3.10;2.80;;;;;;;;;;4939689;29;20435;-75
2023/06/06 14:24:51;;;;;;;7.57;3.00;;;;;;;;;;4956293;29;20409;-74
2023/06/06 14:27:17;;;;;;;5.63;2.73;;;;;;;;;;4951993;29;20416;-74
2023/06/06 14:29:43;;;;;;;3.43;3.13;;;;;;;;;;4955209;29;20435;-74
2023/06/06 14:32:12;;;;;;;5.37;3.17;;;;;;;;;;4955689;29;20456;-74
2023/06/06 14:34:38;;;;;;;3.20;2.60;;;;;;;;;;4954570;29;21001;-74